createdAt,value
2024-01-25T00:01:14.529Z,48.875071199999994
2024-01-25T00:04:20.085Z,48.82825389999999
2024-01-25T00:07:12.983Z,48.86054159999999
2024-01-25T00:09:14.030Z,48.8217979
2024-01-25T00:11:15.113Z,48.752380300000006
2024-01-25T00:13:16.283Z,48.755610399999995
2024-01-25T00:15:17.293Z,48.7749831
2024-01-25T00:17:19.209Z,48.7023362
2024-01-25T00:19:19.527Z,48.7911245
2024-01-25T00:21:20.547Z,48.83632659999999
2024-01-25T00:23:31.445Z,48.8395547
2024-01-25T00:26:26.277Z,48.7475356
2024-01-25T00:29:24.882Z,48.79919640000001
2024-01-25T00:31:26.058Z,48.697492200000006
2024-01-25T00:33:27.217Z,48.736236299999995
2024-01-25T00:35:29.472Z,48.82986960000001
2024-01-25T00:38:29.767Z,48.94610419999999
2024-01-25T00:40:30.911Z,49.1317521
2024-01-25T00:42:32.708Z,49.301259699999996
2024-01-25T00:44:33.027Z,49.3496906
2024-01-25T00:46:34.133Z,49.296416400000005
2024-01-25T00:48:35.318Z,49.3077166
2024-01-25T00:50:36.339Z,49.18018429999999
2024-01-25T00:52:37.368Z,49.1979424
2024-01-25T00:54:38.514Z,49.212472299999995
2024-01-25T00:56:41.209Z,49.2786614
2024-01-25T00:58:41.248Z,49.22215909999999
2024-01-25T01:00:41.779Z,49.143055600000004
2024-01-25T01:02:42.804Z,49.0704094
2024-01-25T01:04:46.563Z,49.0445792
2024-01-25T01:06:45.054Z,48.9880756
2024-01-25T01:08:46.057Z,49.08170940000001
2024-01-25T01:10:47.141Z,49.247988
2024-01-25T01:12:48.312Z,49.333547800000005
2024-01-25T01:14:49.306Z,49.412651000000004
2024-01-25T01:16:51.636Z,49.540184100000005
2024-01-25T01:19:52.147Z,49.5208096
2024-01-25T01:21:53.188Z,49.4578525
2024-01-25T01:23:54.189Z,49.3593777
2024-01-25T01:25:55.273Z,49.32870570000001
2024-01-25T01:27:56.439Z,49.24153210000001
2024-01-25T01:30:23.454Z,49.391666099999995
2024-01-25T01:32:59.388Z,49.5191993
2024-01-25T01:35:00.335Z,49.67094540000001
2024-01-25T01:37:01.334Z,49.741975100000005
2024-01-25T01:39:02.322Z,49.7710342
2024-01-25T01:41:03.410Z,49.7694187
2024-01-25T01:43:04.556Z,49.7032316
2024-01-25T01:45:05.600Z,49.540184800000006
2024-01-25T01:47:11.199Z,49.411039599999995
2024-01-25T01:50:08.375Z,49.5127432
2024-01-25T01:52:14.331Z,49.57408590000001
2024-01-25T01:55:11.023Z,49.73390520000001
2024-01-25T01:57:12.111Z,49.724218900000004
2024-01-25T01:59:13.185Z,49.6370444
2024-01-25T02:01:21.769Z,49.4626956
2024-01-25T02:04:16.049Z,49.2221594
2024-01-25T02:06:16.999Z,49.23668790000001
2024-01-25T02:08:18.078Z,49.336775700000004
2024-01-25T02:10:19.240Z,49.3319329
2024-01-25T02:12:20.235Z,49.3400047
2024-01-25T02:14:21.330Z,49.356148700000006
2024-01-25T02:16:51.002Z,49.2350719
2024-01-25T02:19:24.111Z,49.13821170000001
2024-01-25T02:21:25.125Z,49.1365973
2024-01-25T02:23:26.212Z,49.230231
2024-01-25T02:25:27.304Z,49.280276
2024-01-25T02:28:28.920Z,49.283504799999996
2024-01-25T02:30:30.032Z,49.222160300000006
2024-01-25T02:32:31.113Z,49.254448000000004
2024-01-25T02:34:32.259Z,49.180187000000004
2024-01-25T02:36:33.303Z,49.17695820000001
2024-01-25T02:38:34.340Z,49.14305710000001
2024-01-25T02:40:35.433Z,49.10754090000001
2024-01-25T02:42:37.421Z,49.0494232
2024-01-25T02:44:37.626Z,49.0252077
2024-01-25T02:46:38.690Z,49.06718159999999
2024-01-25T02:48:39.913Z,49.0009927
2024-01-25T02:50:40.865Z,48.86054420000001
2024-01-25T02:52:45.368Z,48.686195
2024-01-25T02:54:45.611Z,48.5828753
2024-01-25T02:57:45.463Z,48.235790900000005
2024-01-25T02:59:45.754Z,48.30843539999999
2024-01-25T03:01:46.952Z,48.356866999999994
2024-01-25T03:03:48.019Z,48.410139599999994
2024-01-25T03:05:49.043Z,48.3859258
2024-01-25T03:07:56.452Z,48.434355
2024-01-25T03:10:52.556Z,48.3100505
2024-01-25T03:13:12.357Z,48.30359349999999
2024-01-25T03:15:54.461Z,48.3471804
2024-01-25T03:17:55.609Z,48.3891525
2024-01-25T03:19:56.658Z,48.526372900000005
2024-01-25T03:21:57.732Z,48.4844011
2024-01-25T03:23:58.764Z,48.47955749999999
2024-01-25T03:25:59.953Z,48.54897160000001
2024-01-25T03:28:01.040Z,48.5215285
2024-01-25T03:30:02.064Z,48.44242309999999
2024-01-25T03:32:03.177Z,48.52314009999999
2024-01-25T03:34:04.355Z,48.452110299999994
2024-01-25T03:36:08.817Z,48.49085629999999
2024-01-25T03:39:06.918Z,48.513457
2024-01-25T03:41:08.004Z,48.48439989999999
2024-01-25T03:43:14.204Z,48.47955499999999
2024-01-25T03:46:13.372Z,48.521527999999996
2024-01-25T03:49:12.374Z,48.4214403
2024-01-25T03:51:13.417Z,48.352024799999995
2024-01-25T03:53:14.516Z,48.416598099999995
2024-01-25T03:55:15.695Z,48.2793789
2024-01-25T03:57:16.714Z,48.280993
2024-01-25T03:59:18.050Z,48.356865899999995
2024-01-25T04:01:19.064Z,48.339108499999995
2024-01-25T04:03:19.960Z,48.329422699999995
2024-01-25T04:05:21.077Z,48.4617989
2024-01-25T04:07:22.172Z,48.502156
2024-01-25T04:09:27.960Z,48.5166846
2024-01-25T04:12:24.809Z,48.668432
2024-01-25T04:14:29.236Z,48.4860119
2024-01-25T04:17:35.516Z,48.423053499999995
2024-01-25T04:20:29.477Z,48.253547600000005
2024-01-25T04:22:30.325Z,48.1066433
2024-01-25T04:24:32.014Z,48.12924360000001
2024-01-25T04:26:32.427Z,48.145388399999995
2024-01-25T04:28:38.989Z,48.080815799999996
2024-01-25T04:30:46.571Z,48.0808151
2024-01-25T04:33:37.747Z,48.20350280000001
2024-01-25T04:36:38.341Z,48.18251529999999
2024-01-25T04:38:38.933Z,48.177672099999995
2024-01-25T04:40:40.020Z,48.216416699999996
2024-01-25T04:42:41.145Z,48.0953411
2024-01-25T04:44:42.746Z,48.0323832
2024-01-25T04:46:43.341Z,47.95328
2024-01-25T04:48:44.548Z,47.9597379
2024-01-25T04:50:45.476Z,48.0243111
2024-01-25T04:52:46.520Z,48.0033241
2024-01-25T04:54:47.655Z,47.9920243
2024-01-25T04:57:01.237Z,48.0582136
2024-01-25T04:59:50.319Z,47.9952562
2024-01-25T05:01:51.484Z,48.1066466
2024-01-25T05:03:52.610Z,48.201891
2024-01-25T05:05:53.583Z,48.271306499999994
2024-01-25T05:07:55.760Z,48.33587949999999
2024-01-25T05:09:55.777Z,48.444039499999995
2024-01-25T05:11:56.845Z,48.4311266
2024-01-25T05:13:58.134Z,48.4230544
2024-01-25T05:15:59.021Z,48.466640600000005
2024-01-25T05:18:00.280Z,48.5134546
2024-01-25T05:20:01.680Z,48.5473562
2024-01-25T05:22:02.285Z,48.5990134
2024-01-25T05:24:03.362Z,48.6296854
2024-01-25T05:26:04.442Z,48.6522867
2024-01-25T05:28:05.809Z,48.5780281
2024-01-25T05:30:06.608Z,48.5667274
2024-01-25T05:32:07.700Z,48.55381229999999
2024-01-25T05:34:13.088Z,48.54412789999999
2024-01-25T05:37:10.569Z,48.608701700000005
2024-01-25T05:39:11.492Z,48.61192989999999
2024-01-25T05:41:27.186Z,48.6103155
2024-01-25T05:44:14.191Z,48.503771799999996
2024-01-25T05:46:26.490Z,48.4472696
2024-01-25T05:49:17.158Z,48.41821159999999
2024-01-25T05:51:18.357Z,48.33426579999999
2024-01-25T05:53:24.766Z,48.4440392
2024-01-25T05:56:20.712Z,48.58125740000001
2024-01-25T05:58:21.847Z,48.553814
2024-01-25T06:00:22.884Z,48.4860113
2024-01-25T06:02:24.016Z,48.4488828
2024-01-25T06:04:25.111Z,48.3278081
2024-01-25T06:06:26.609Z,48.224490499999995
2024-01-25T06:08:52.035Z,48.2148053
2024-01-25T06:11:38.232Z,48.19704779999999
2024-01-25T06:14:30.480Z,48.256777799999995
2024-01-25T06:16:31.964Z,48.22610649999999
2024-01-25T06:18:32.758Z,48.16637729999999
2024-01-25T06:20:36.701Z,48.08889039999999
2024-01-25T06:22:39.170Z,48.106648299999996
2024-01-25T06:25:37.603Z,48.0727481
2024-01-25T06:27:37.609Z,48.1244057
2024-01-25T06:29:44.057Z,48.148620199999996
2024-01-25T06:32:40.291Z,48.10018999999999
2024-01-25T06:34:41.465Z,48.148618199999994
2024-01-25T06:36:42.469Z,48.03077139999999
2024-01-25T06:38:43.508Z,47.97104219999999
2024-01-25T06:40:44.605Z,48.079201999999995
2024-01-25T06:42:45.691Z,48.046914199999996
2024-01-25T06:44:46.793Z,47.9129231
2024-01-25T06:46:48.305Z,48.00009849999999
2024-01-25T06:48:49.048Z,48.01301120000001
2024-01-25T06:50:50.050Z,47.9581242
2024-01-25T06:52:53.812Z,48.0033262
2024-01-25T06:54:55.075Z,48.119560299999996
2024-01-25T06:57:53.873Z,48.172831499999994
2024-01-25T06:59:54.904Z,48.2374061
2024-01-25T07:01:56.138Z,48.16637539999999
2024-01-25T07:03:57.143Z,48.163146499999996
2024-01-25T07:05:58.185Z,48.12924639999999
2024-01-25T07:08:11.032Z,48.07435969999999
2024-01-25T07:11:00.917Z,48.09695979999999
2024-01-25T07:13:02.002Z,48.164761899999995
2024-01-25T07:15:03.062Z,48.13408929999999
2024-01-25T07:17:10.337Z,48.1179455
2024-01-25T07:20:05.927Z,48.219648299999996
2024-01-25T07:22:06.922Z,48.2051187
2024-01-25T07:24:07.942Z,48.0582136
2024-01-25T07:26:09.032Z,48.053369399999994
2024-01-25T07:28:10.669Z,47.9710378
2024-01-25T07:30:11.212Z,47.8661077
2024-01-25T07:32:13.653Z,47.8209067
2024-01-25T07:35:14.987Z,47.95328479999999
2024-01-25T07:37:15.021Z,48.0162457
2024-01-25T07:39:17.562Z,48.0453031
2024-01-25T07:42:17.754Z,48.082433099999996
2024-01-25T07:44:18.788Z,48.0566031
2024-01-25T07:46:19.902Z,47.9645852
2024-01-25T07:48:20.999Z,47.9226109
2024-01-25T07:50:22.134Z,47.8935538
2024-01-25T07:52:24.031Z,47.9016257
2024-01-25T07:54:24.217Z,47.9096972
2024-01-25T07:56:25.310Z,47.9678138
2024-01-25T07:58:26.577Z,48.0775886
2024-01-25T08:00:40.717Z,48.135702499999994
2024-01-25T08:03:29.170Z,48.0517547
2024-01-25T08:05:34.296Z,48.01623959999999
2024-01-25T08:07:31.400Z,47.9904084
2024-01-25T08:09:32.453Z,47.8628782
2024-01-25T08:11:33.451Z,47.8047627
2024-01-25T08:13:35.985Z,47.848351
2024-01-25T08:15:35.766Z,47.8402794
2024-01-25T08:17:36.756Z,47.77409229999999
2024-01-25T08:19:37.990Z,47.7611775
2024-01-25T08:21:38.885Z,47.793463700000004
2024-01-25T08:23:39.952Z,47.749875
2024-01-25T08:25:41.064Z,47.77409060000001
2024-01-25T08:27:42.162Z,47.8128351
2024-01-25T08:29:43.224Z,47.830591999999996
2024-01-25T08:31:44.342Z,47.753101400000006
2024-01-25T08:33:46.238Z,47.7030549
2024-01-25T08:35:46.548Z,47.625563899999996
2024-01-25T08:37:47.550Z,47.6045774
2024-01-25T08:39:48.664Z,47.688522899999995
2024-01-25T08:41:49.725Z,47.787002099999995
2024-01-25T08:43:51.358Z,47.87740909999999
2024-01-25T08:45:51.965Z,47.933912299999996
2024-01-25T08:47:53.901Z,47.922610199999994
2024-01-25T08:49:54.232Z,47.7902333
2024-01-25T08:51:55.501Z,47.6384793
2024-01-25T08:53:56.237Z,47.5626024
2024-01-25T08:56:11.520Z,47.5626032
2024-01-25T08:58:58.997Z,47.559374899999995
2024-01-25T09:01:00.105Z,47.609421299999994
2024-01-25T09:03:01.119Z,47.7062854
2024-01-25T09:05:04.056Z,47.69821369999999
2024-01-25T09:07:11.491Z,47.7773195
2024-01-25T09:10:04.997Z,47.83866629999999
2024-01-25T09:12:05.996Z,47.8580396
2024-01-25T09:14:13.151Z,47.8548117
2024-01-25T09:17:08.717Z,47.7579461
2024-01-25T09:19:10.463Z,47.7256565
2024-01-25T09:21:22.013Z,47.6029603
2024-01-25T09:24:12.521Z,47.5561439
2024-01-25T09:26:13.613Z,47.5238559
2024-01-25T09:28:17.844Z,47.557759
2024-01-25T09:31:16.377Z,47.5642199
2024-01-25T09:33:17.482Z,47.598120900000005
2024-01-25T09:35:18.573Z,47.6271798
2024-01-25T09:37:19.646Z,47.504484399999996
2024-01-25T09:39:20.649Z,47.426990599999996
2024-01-25T09:41:21.746Z,47.338196999999994
2024-01-25T09:43:22.885Z,47.202585299999996
2024-01-25T09:45:23.917Z,47.0928036
2024-01-25T09:47:25.003Z,47.086344399999994
2024-01-25T09:49:26.119Z,47.081500899999995
2024-01-25T09:51:27.165Z,47.045982699999996
2024-01-25T09:53:28.281Z,46.9394323
2024-01-25T09:55:36.239Z,46.8587117
2024-01-25T09:58:30.986Z,46.957193
2024-01-25T10:00:36.706Z,46.966878599999994
2024-01-25T10:03:33.693Z,46.9910946
2024-01-25T10:05:34.869Z,46.98140840000001
2024-01-25T10:07:35.888Z,46.810280899999995
2024-01-25T10:09:36.953Z,46.5665101
2024-01-25T10:11:40.688Z,46.4228311
2024-01-25T10:13:39.167Z,46.3889296
2024-01-25T10:15:40.224Z,46.325968700000004
2024-01-25T10:17:52.056Z,46.1968208
2024-01-25T10:19:42.469Z,46.20812
2024-01-25T10:21:48.451Z,46.119331200000005
2024-01-25T10:24:45.151Z,45.7738619
2024-01-25T10:26:46.192Z,45.7448044
2024-01-25T10:28:47.343Z,45.736732599999996
2024-01-25T10:30:48.436Z,45.63180130000001
2024-01-25T10:32:49.417Z,45.5785269
2024-01-25T10:34:50.570Z,45.69960100000001
2024-01-25T10:36:51.841Z,45.73188689999999
2024-01-25T10:38:52.666Z,45.71090099999999
2024-01-25T10:41:00.384Z,45.7593318
2024-01-25T10:43:55.384Z,45.87556300000001
2024-01-25T10:45:56.976Z,45.80292000000001
2024-01-25T10:47:57.575Z,45.66085790000001
2024-01-25T10:50:03.947Z,45.5526983
2024-01-25T10:53:00.265Z,45.38803560000001
2024-01-25T10:55:01.660Z,45.271804
2024-01-25T10:57:02.432Z,45.26696
2024-01-25T10:59:03.509Z,45.365435899999994
2024-01-25T11:01:10.032Z,45.413863899999996
2024-01-25T11:04:07.772Z,45.397719699999996
2024-01-25T11:06:08.181Z,45.3379875
2024-01-25T11:08:17.830Z,45.2411268
2024-01-25T11:11:10.069Z,44.9699147
2024-01-25T11:13:20.397Z,44.86175220000001
2024-01-25T11:16:12.796Z,44.8665951
2024-01-25T11:18:13.963Z,44.8520658
2024-01-25T11:20:15.024Z,44.873052799999996
2024-01-25T11:22:23.977Z,44.873052799999996
2024-01-25T11:25:17.664Z,44.918255200000004
2024-01-25T11:27:18.723Z,44.898882099999994
2024-01-25T11:29:19.836Z,44.8811239
2024-01-25T11:31:20.946Z,44.9473135
2024-01-25T11:33:22.049Z,44.8682088
2024-01-25T11:35:25.188Z,44.701927899999994
2024-01-25T11:37:24.212Z,44.5453338
2024-01-25T11:39:25.247Z,44.475915400000005
2024-01-25T11:41:26.326Z,44.4484708
2024-01-25T11:43:28.871Z,44.6421963
2024-01-25T11:46:29.081Z,44.9230985
2024-01-25T11:48:38.279Z,44.9004973
2024-01-25T11:51:31.771Z,44.8359223
2024-01-25T11:53:32.844Z,44.7390597
2024-01-25T11:55:33.987Z,44.5743929
2024-01-25T11:57:35.011Z,44.59537970000001
2024-01-25T11:59:36.082Z,44.626052900000005
2024-01-25T12:01:37.220Z,44.6018372
2024-01-25T12:03:38.280Z,44.6292816
2024-01-25T12:05:42.759Z,44.6244385
2024-01-25T12:08:46.626Z,44.56309219999999
2024-01-25T12:11:42.626Z,44.6325105
2024-01-25T12:13:43.691Z,44.4581574
2024-01-25T12:15:44.827Z,44.454928699999996
2024-01-25T12:17:45.944Z,44.3661377
2024-01-25T12:19:47.008Z,44.227300899999996
2024-01-25T12:21:48.062Z,44.1013793
2024-01-25T12:23:49.124Z,44.3096343
2024-01-25T12:25:50.316Z,44.50497370000001
2024-01-25T12:27:52.138Z,44.776189599999995
2024-01-25T12:29:53.010Z,44.9376276
2024-01-25T12:31:53.450Z,45.074850000000005
2024-01-25T12:33:54.729Z,45.04256240000001
2024-01-25T12:35:55.826Z,44.9311702
2024-01-25T12:37:56.704Z,44.795562800000006
2024-01-25T12:39:57.844Z,44.6615692
2024-01-25T12:41:58.962Z,44.668026700000006
2024-01-25T12:44:00.986Z,44.742287399999995
2024-01-25T12:46:04.066Z,44.7439018
2024-01-25T12:48:02.638Z,44.6857842
2024-01-25T12:50:03.371Z,44.8230065
2024-01-25T12:52:04.982Z,44.83753599999999
2024-01-25T12:54:05.396Z,44.7309877
2024-01-25T12:56:06.524Z,44.8343077
2024-01-25T12:58:07.794Z,44.974758699999995
2024-01-25T13:00:08.692Z,44.937627799999994
2024-01-25T13:02:09.748Z,45.10229220000001
2024-01-25T13:04:10.886Z,45.265344500000005
2024-01-25T13:06:11.973Z,45.320232000000004
2024-01-25T13:08:13.230Z,45.2653431
2024-01-25T13:10:17.561Z,45.2782583
2024-01-25T13:13:21.849Z,45.0861495
2024-01-25T13:15:25.532Z,44.9150269
2024-01-25T13:17:25.902Z,44.8746673
2024-01-25T13:20:19.694Z,44.8746672
2024-01-25T13:22:20.606Z,44.8375364
2024-01-25T13:24:22.356Z,44.8246214
2024-01-25T13:26:22.766Z,44.890811
2024-01-25T13:28:23.876Z,44.8326933
2024-01-25T13:30:24.965Z,44.8359222
2024-01-25T13:32:26.030Z,44.845608600000006
2024-01-25T13:34:27.248Z,44.906954999999996
2024-01-25T13:36:28.240Z,44.8875825
2024-01-25T13:38:29.318Z,44.874667599999995
2024-01-25T13:40:30.391Z,44.86013809999999
2024-01-25T13:42:31.451Z,44.86175239999999
2024-01-25T13:44:33.143Z,44.8488374
2024-01-25T13:46:33.628Z,44.80524910000001
2024-01-25T13:48:34.762Z,44.818164100000004
2024-01-25T13:50:35.785Z,44.82139289999999
2024-01-25T13:52:36.887Z,44.7552033
2024-01-25T13:54:37.976Z,44.703543100000005
2024-01-25T13:56:39.043Z,44.88758250000001
2024-01-25T13:58:40.116Z,44.9392427
2024-01-25T14:00:41.272Z,44.8972688
2024-01-25T14:02:42.311Z,44.9521577
2024-01-25T14:04:43.402Z,44.91179820000001
2024-01-25T14:06:44.507Z,44.75681769999999
2024-01-25T14:08:45.550Z,44.72775879999999
2024-01-25T14:10:51.673Z,44.745517
2024-01-25T14:12:51.785Z,44.700314399999996
2024-01-25T14:15:51.191Z,44.8698243
2024-01-25T14:18:51.010Z,44.8520662
2024-01-25T14:22:00.116Z,44.8569093
2024-01-25T14:23:53.708Z,44.91179820000001
2024-01-25T14:25:54.889Z,44.7842622
2024-01-25T14:27:58.359Z,44.8052491
2024-01-25T14:29:56.946Z,44.803634699999996
2024-01-25T14:31:58.096Z,44.82462159999999
2024-01-25T14:33:59.202Z,44.82462159999999
2024-01-25T14:36:00.211Z,44.8439942
2024-01-25T14:38:01.294Z,44.7374451
2024-01-25T14:40:07.065Z,44.685784899999994
2024-01-25T14:42:03.469Z,44.621209799999995
2024-01-25T14:44:04.546Z,44.5550202
2024-01-25T14:46:05.660Z,44.60345149999999
2024-01-25T14:48:06.768Z,44.6486542
2024-01-25T14:50:08.258Z,44.6615693
2024-01-25T14:52:08.896Z,44.6260529
2024-01-25T14:54:10.043Z,44.66802679999999
2024-01-25T14:56:12.446Z,44.630896099999994
2024-01-25T14:59:19.366Z,44.596994099999996
2024-01-25T15:02:14.324Z,44.6325104
2024-01-25T15:04:20.406Z,44.6744844
2024-01-25T15:07:22.351Z,44.7552034
2024-01-25T15:10:18.671Z,44.855295
2024-01-25T15:12:20.769Z,44.8262362
2024-01-25T15:14:21.068Z,44.814935399999996
2024-01-25T15:16:21.948Z,44.768118400000006
2024-01-25T15:18:23.108Z,44.729373300000006
2024-01-25T15:20:24.434Z,44.571163999999996
2024-01-25T15:22:25.163Z,44.563092
2024-01-25T15:24:26.292Z,44.6002228
2024-01-25T15:27:31.449Z,44.5695496
2024-01-25T15:30:32.178Z,44.611523399999996
2024-01-25T15:32:34.952Z,44.6373535
2024-01-25T15:35:32.234Z,44.671255499999994
2024-01-25T15:37:33.320Z,44.535647499999996
2024-01-25T15:39:34.465Z,44.5421051
2024-01-25T15:41:38.180Z,44.5404908
2024-01-25T15:45:22.348Z,44.364523399999996
2024-01-25T15:47:38.760Z,44.53403330000001
2024-01-25T15:49:39.832Z,44.496902500000004
2024-01-25T15:51:40.917Z,44.50820309999999
2024-01-25T15:53:42.010Z,44.5953797
2024-01-25T15:55:43.236Z,44.617981
2024-01-25T15:57:48.188Z,44.51627499999999
2024-01-25T16:00:45.870Z,44.65995489999999
2024-01-25T16:02:46.869Z,44.6680267
2024-01-25T16:04:48.030Z,44.727758699999995
2024-01-25T16:06:49.090Z,44.7858764
2024-01-25T16:08:52.869Z,44.771347
2024-01-25T16:11:51.750Z,44.6873992
2024-01-25T16:14:53.385Z,44.509817399999996
2024-01-25T16:16:54.478Z,44.4662292
2024-01-25T16:18:55.618Z,44.43394159999999
2024-01-25T16:20:56.643Z,44.3822815
2024-01-25T16:22:57.726Z,44.3435364
2024-01-25T16:24:58.898Z,44.3871247
2024-01-25T16:26:59.895Z,44.4355562
2024-01-25T16:29:01.011Z,44.464614999999995
2024-01-25T16:31:02.070Z,44.54049079999999
2024-01-25T16:33:03.214Z,44.58892209999999
2024-01-25T16:35:04.240Z,44.495288099999996
2024-01-25T16:37:05.318Z,44.537261900000004
2024-01-25T16:39:06.391Z,44.6631834
2024-01-25T16:41:07.481Z,44.8310788
2024-01-25T16:43:08.574Z,44.8924253
2024-01-25T16:45:09.656Z,45.1491104
2024-01-25T16:47:10.761Z,45.247587100000004
2024-01-25T16:49:11.973Z,45.1846262
2024-01-25T16:51:12.965Z,45.1991541
2024-01-25T16:53:13.992Z,45.2120691
2024-01-25T16:56:15.620Z,44.9650703
2024-01-25T16:58:16.762Z,44.91018190000001
2024-01-25T17:00:19.409Z,44.92632570000001
2024-01-25T17:02:18.889Z,44.863366500000005
2024-01-25T17:04:20.280Z,44.8601375
2024-01-25T17:06:21.171Z,44.9198696
2024-01-25T17:08:22.170Z,45.0005886
2024-01-25T17:10:23.215Z,44.9828304
2024-01-25T17:12:24.340Z,44.8956541
2024-01-25T17:14:25.398Z,44.842379699999995
2024-01-25T17:16:26.477Z,44.91664149999999
2024-01-25T17:18:27.636Z,44.97153029999999
2024-01-25T17:20:28.651Z,45.02803359999999
2024-01-25T17:22:29.753Z,45.1684841
2024-01-25T17:24:30.848Z,45.2153007
2024-01-25T17:26:31.908Z,45.2863318
2024-01-25T17:28:32.997Z,45.31216109999999
2024-01-25T17:30:34.105Z,45.2233702
2024-01-25T17:32:35.236Z,45.1410374
2024-01-25T17:34:36.367Z,45.0474037
2024-01-25T17:36:37.371Z,44.8407646
2024-01-25T17:38:38.425Z,44.766504000000005
2024-01-25T17:40:39.518Z,44.8084778
2024-01-25T17:42:40.677Z,44.781033300000004
2024-01-25T17:44:41.692Z,44.7455169
2024-01-25T17:46:42.953Z,44.7439026
2024-01-25T17:48:43.916Z,44.6954712
2024-01-25T17:50:44.934Z,44.6405824
2024-01-25T17:52:46.016Z,44.5049745
2024-01-25T17:54:47.098Z,44.517889600000004
2024-01-25T17:56:48.197Z,44.6115235
2024-01-25T17:58:49.275Z,44.8133186
2024-01-25T18:00:50.415Z,44.997357300000004
2024-01-25T18:02:51.470Z,45.3105456
2024-01-25T18:05:08.002Z,45.4719834
2024-01-25T18:06:53.770Z,45.4413103
2024-01-25T18:08:54.690Z,45.405795100000006
2024-01-25T18:10:55.795Z,45.265344600000006
2024-01-25T18:12:56.916Z,45.1926979
2024-01-25T18:14:57.959Z,45.2201412
2024-01-25T18:16:59.040Z,45.237899299999995
2024-01-25T18:19:00.203Z,45.132965199999994
2024-01-25T18:21:01.225Z,45.1281221
2024-01-25T18:23:02.310Z,45.0861492
2024-01-25T18:25:03.442Z,44.934398900000005
2024-01-25T18:27:04.476Z,45.0457907
2024-01-25T18:29:05.565Z,45.157182
2024-01-25T18:31:06.686Z,45.2395146
2024-01-25T18:33:07.748Z,45.3008594
2024-01-25T18:35:08.841Z,45.4251661
2024-01-25T18:37:09.905Z,45.388035099999996
2024-01-25T18:39:10.973Z,45.349290999999994
2024-01-25T18:41:12.068Z,45.3234615
2024-01-25T18:43:13.181Z,45.2992474
2024-01-25T18:45:14.311Z,45.418707700000006
2024-01-25T18:47:15.350Z,45.567226999999995
2024-01-25T18:49:16.512Z,45.6269585
2024-01-25T18:51:17.516Z,45.746420799999996
2024-01-25T18:53:18.589Z,45.9756567
2024-01-25T18:55:19.680Z,45.953056100000005
2024-01-25T18:57:20.826Z,45.89332560000001
2024-01-25T18:59:21.828Z,46.0047134
2024-01-25T19:01:23.069Z,46.0612131
2024-01-25T19:03:24.099Z,45.940137699999994
2024-01-25T19:05:25.117Z,45.94498110000001
2024-01-25T19:07:26.188Z,46.1080303
2024-01-25T19:09:27.301Z,46.190363600000005
2024-01-25T19:11:28.357Z,46.16130700000001
2024-01-25T19:13:29.483Z,46.287225500000005
2024-01-25T19:15:30.595Z,46.338882999999996
2024-01-25T19:17:31.640Z,46.250092
2024-01-25T19:19:32.753Z,46.2081178
2024-01-25T19:21:33.789Z,46.3178929
2024-01-25T19:23:35.276Z,46.3760108
2024-01-25T19:25:35.941Z,46.434128300000005
2024-01-25T19:27:37.069Z,46.48256049999999
2024-01-25T19:29:38.117Z,46.59718199999999
2024-01-25T19:31:39.233Z,46.606868199999994
2024-01-25T19:33:40.376Z,46.605255
2024-01-25T19:35:42.052Z,46.6682173
2024-01-25T19:37:42.464Z,46.668217
2024-01-25T19:39:43.542Z,46.589111900000006
2024-01-25T19:41:44.639Z,46.540682100000005
2024-01-25T19:43:45.720Z,46.45834910000001
2024-01-25T19:45:46.862Z,46.424445899999995
2024-01-25T19:47:47.940Z,46.5358385
2024-01-25T19:49:49.004Z,46.642389
2024-01-25T19:51:50.078Z,46.684361300000006
2024-01-25T19:53:51.137Z,46.640771300000004
2024-01-25T19:55:52.286Z,46.7037338
2024-01-25T19:57:53.373Z,46.706962499999996
2024-01-25T19:59:54.399Z,46.6795168
2024-01-25T20:01:55.685Z,46.697275000000005
2024-01-25T20:03:56.646Z,46.8926169
2024-01-25T20:05:57.653Z,46.839340400000005
2024-01-25T20:07:58.747Z,46.8457983
2024-01-25T20:09:59.890Z,46.986253600000005
2024-01-25T20:12:00.919Z,47.03953
2024-01-25T20:14:01.993Z,47.036301300000005
2024-01-25T20:16:03.129Z,47.2042017
2024-01-25T20:18:04.241Z,47.1977436
2024-01-25T20:20:05.326Z,47.01370059999999
2024-01-25T20:22:06.378Z,47.05083129999999
2024-01-25T20:24:07.427Z,47.0298442
2024-01-25T20:26:08.510Z,46.842571299999996
2024-01-25T20:28:09.610Z,46.9249087
2024-01-25T20:30:10.683Z,47.016929100000006
2024-01-25T20:32:11.970Z,47.0185429
2024-01-25T20:34:12.895Z,47.0605168
2024-01-25T20:36:13.940Z,47.176753700000006
2024-01-25T20:38:15.008Z,47.057285300000004
2024-01-25T20:40:16.090Z,47.0718154
2024-01-25T20:42:17.220Z,47.02822619999999
2024-01-25T20:44:18.281Z,47.0362984
2024-01-25T20:46:19.369Z,47.012081800000004
2024-01-25T20:48:25.403Z,46.991094499999996
2024-01-25T20:51:22.096Z,46.858712999999995
2024-01-25T20:53:23.522Z,46.8070517
2024-01-25T20:55:24.263Z,46.77960660000001
2024-01-25T20:57:25.328Z,46.7570052
2024-01-25T20:59:26.423Z,46.7586202
2024-01-25T21:01:27.577Z,46.826425799999996
2024-01-25T21:03:28.684Z,46.849027
2024-01-25T21:05:29.862Z,46.7844508
2024-01-25T21:07:30.760Z,46.7747645
2024-01-25T21:09:31.859Z,46.7828359
2024-01-25T21:11:33.001Z,46.78444950000001
2024-01-25T21:13:34.015Z,46.69888770000001
2024-01-25T21:15:35.131Z,46.631084
2024-01-25T21:17:36.197Z,46.5100061
2024-01-25T21:19:37.455Z,46.474489600000005
2024-01-25T21:21:38.399Z,46.3404955
2024-01-25T21:23:39.449Z,46.2404059
2024-01-25T21:25:40.539Z,46.2081185
2024-01-25T21:27:41.653Z,46.3178959
2024-01-25T21:30:04.396Z,46.2952947
2024-01-25T21:32:44.351Z,46.4276724
2024-01-25T21:34:45.530Z,46.4987048
2024-01-25T21:36:46.543Z,46.5019331
2024-01-25T21:38:47.598Z,46.5245344